createdAt,value
2023-02-13T00:01:05.145Z,88.89
2023-02-13T00:03:34.917Z,88.79
2023-02-13T00:06:02.875Z,88.05
2023-02-13T00:08:30.791Z,88.04
2023-02-13T00:10:59.276Z,88.48
2023-02-13T00:13:27.421Z,88.58
2023-02-13T00:15:59.642Z,88.69
2023-02-13T00:18:27.855Z,87.78
2023-02-13T00:21:01.529Z,87.66
2023-02-13T00:23:31.375Z,88.45
2023-02-13T00:25:59.351Z,88.32
2023-02-13T00:28:27.726Z,88.65
2023-02-13T00:30:56.332Z,88.83
2023-02-13T00:33:24.541Z,87.87
2023-02-13T00:35:52.513Z,88.25
2023-02-13T00:38:21.858Z,89.03
2023-02-13T00:40:49.702Z,88.64
2023-02-13T00:43:18.214Z,87.54
2023-02-13T00:45:47.209Z,88.48
2023-02-13T00:48:15.068Z,88.22
2023-02-13T00:50:42.998Z,88.50
2023-02-13T00:53:10.943Z,88.06
2023-02-13T00:55:40.222Z,87.19
2023-02-13T00:58:08.288Z,88.37
2023-02-13T01:00:36.172Z,88.14
2023-02-13T01:03:04.212Z,88.24
2023-02-13T01:05:32.193Z,88.00
2023-02-13T01:08:00.204Z,87.77
2023-02-13T01:10:28.554Z,87.29
2023-02-13T01:12:59.418Z,87.93
2023-02-13T01:15:27.418Z,87.37
2023-02-13T01:17:57.491Z,88.68
2023-02-13T01:20:26.277Z,88.42
2023-02-13T01:22:54.183Z,87.98
2023-02-13T01:25:22.526Z,88.26
2023-02-13T01:27:50.689Z,88.40
2023-02-13T01:30:20.992Z,87.96
2023-02-13T01:32:49.455Z,88.01
2023-02-13T01:35:17.891Z,87.67
2023-02-13T01:37:45.807Z,86.79
2023-02-13T01:40:17.334Z,86.89
2023-02-13T01:42:45.466Z,87.27
2023-02-13T01:45:28.255Z,87.28
2023-02-13T01:47:59.487Z,87.26
2023-02-13T01:50:33.905Z,87.34
2023-02-13T01:53:07.235Z,86.59
2023-02-13T01:55:39.035Z,86.79
2023-02-13T01:58:10.723Z,86.65
2023-02-13T02:00:40.875Z,86.57
2023-02-13T02:03:13.809Z,85.46
2023-02-13T02:05:42.603Z,85.03
2023-02-13T02:08:13.868Z,84.88
2023-02-13T02:10:42.648Z,85.01
2023-02-13T02:13:13.594Z,84.38
2023-02-13T02:15:44.039Z,84.02
2023-02-13T02:18:16.465Z,82.99
2023-02-13T02:21:20.933Z,83.99
2023-02-13T02:24:17.489Z,82.62
2023-02-13T02:27:17.290Z,82.95
2023-02-13T02:30:26.804Z,82.74
2023-02-13T02:33:10.310Z,82.79
2023-02-13T02:35:47.308Z,82.44
2023-02-13T02:38:26.980Z,81.78
2023-02-13T02:41:05.112Z,81.79
2023-02-13T02:43:53.988Z,81.02
2023-02-13T02:46:29.188Z,81.42
2023-02-13T02:49:35.120Z,80.16
2023-02-13T02:52:08.746Z,80.47
2023-02-13T02:55:02.214Z,81.37
2023-02-13T02:57:52.747Z,80.13
2023-02-13T03:00:45.211Z,80.05
2023-02-13T03:03:36.216Z,79.30
2023-02-13T03:06:14.216Z,80.93
2023-02-13T03:09:02.605Z,80.15
2023-02-13T03:11:47.798Z,79.60
2023-02-13T03:14:20.496Z,79.32
2023-02-13T03:17:07.048Z,79.86
2023-02-13T03:20:05.561Z,78.99
2023-02-13T03:22:46.122Z,79.74
2023-02-13T03:25:30.200Z,79.68
2023-02-13T03:28:23.068Z,79.81
2023-02-13T03:31:01.214Z,79.39
2023-02-13T03:33:43.181Z,79.17
2023-02-13T03:36:38.430Z,80.08
2023-02-13T03:39:13.937Z,79.55
2023-02-13T03:41:46.985Z,79.86
2023-02-13T03:44:21.920Z,79.94
2023-02-13T03:46:53.057Z,79.12
2023-02-13T03:49:41.383Z,79.72
2023-02-13T03:52:17.299Z,80.15
2023-02-13T03:55:09.687Z,79.55
2023-02-13T03:57:58.433Z,79.93
2023-02-13T04:00:29.759Z,79.29
2023-02-13T04:03:05.932Z,80.20
2023-02-13T04:05:41.246Z,79.31
2023-02-13T04:08:09.245Z,78.94
2023-02-13T04:10:46.203Z,79.84
2023-02-13T04:13:19.110Z,78.82
2023-02-13T04:15:51.657Z,79.44
2023-02-13T04:18:23.139Z,77.60
2023-02-13T04:20:51.191Z,78.34
2023-02-13T04:23:19.171Z,78.41
2023-02-13T04:25:51.957Z,78.57
2023-02-13T04:28:20.074Z,78.31
2023-02-13T04:30:48.430Z,78.37
2023-02-13T04:33:16.933Z,78.43
2023-02-13T04:35:44.809Z,78.53
2023-02-13T04:38:12.651Z,76.93
2023-02-13T04:40:40.502Z,78.33
2023-02-13T04:43:09.811Z,77.97
2023-02-13T04:45:37.691Z,78.16
2023-02-13T04:48:06.088Z,77.71
2023-02-13T04:50:34.002Z,77.77
2023-02-13T04:53:01.957Z,77.24
2023-02-13T04:55:29.856Z,77.65
2023-02-13T04:57:58.654Z,77.63
2023-02-13T05:00:29.934Z,76.95
2023-02-13T05:03:05.254Z,76.85
2023-02-13T05:05:33.353Z,76.08
2023-02-13T05:08:02.142Z,76.94
2023-02-13T05:10:30.054Z,76.42
2023-02-13T05:12:58.014Z,76.78
2023-02-13T05:15:26.056Z,76.75
2023-02-13T05:17:55.601Z,76.18
2023-02-13T05:20:23.662Z,76.20
2023-02-13T05:23:10.805Z,76.89
2023-02-13T05:25:40.932Z,76.16
2023-02-13T05:28:29.665Z,76.31
2023-02-13T05:30:57.782Z,77.23
2023-02-13T05:33:27.632Z,77.32
2023-02-13T05:35:56.440Z,76.74
2023-02-13T05:38:24.316Z,76.50
2023-02-13T05:40:52.159Z,77.12
2023-02-13T05:43:21.233Z,76.99
2023-02-13T05:45:49.403Z,76.50
2023-02-13T05:48:17.221Z,76.87
2023-02-13T05:50:47.566Z,77.35
2023-02-13T05:53:15.435Z,76.66
2023-02-13T05:55:43.361Z,76.01
2023-02-13T05:58:11.976Z,77.08
2023-02-13T06:00:40.370Z,76.70
2023-02-13T06:03:08.240Z,76.96
2023-02-13T06:05:36.054Z,76.88
2023-02-13T06:08:05.702Z,76.51
2023-02-13T06:10:33.608Z,76.90
2023-02-13T06:13:01.534Z,76.75
2023-02-13T06:15:29.621Z,76.52
2023-02-13T06:17:57.648Z,75.74
2023-02-13T06:20:25.569Z,75.53
2023-02-13T06:22:54.350Z,74.98
2023-02-13T06:25:23.684Z,75.11
2023-02-13T06:27:51.614Z,74.69
2023-02-13T06:30:20.345Z,74.79
2023-02-13T06:32:49.148Z,74.90
2023-02-13T06:35:17.542Z,74.31
2023-02-13T06:37:46.483Z,74.06
2023-02-13T06:40:15.971Z,74.54
2023-02-13T06:42:46.886Z,73.91
2023-02-13T06:45:15.119Z,73.96
2023-02-13T06:47:44.125Z,74.21
2023-02-13T06:50:13.845Z,74.20
2023-02-13T06:52:46.262Z,73.83
2023-02-13T06:55:14.588Z,74.37
2023-02-13T06:57:43.024Z,73.39
2023-02-13T07:00:14.394Z,74.11
2023-02-13T07:02:43.076Z,73.92
2023-02-13T07:05:14.239Z,74.22
2023-02-13T07:07:43.442Z,74.30
2023-02-13T07:10:13.733Z,73.95
2023-02-13T07:12:41.671Z,73.38
2023-02-13T07:15:10.196Z,73.00
2023-02-13T07:17:39.538Z,73.39
2023-02-13T07:20:09.473Z,73.28
2023-02-13T07:22:37.450Z,73.42
2023-02-13T07:25:05.352Z,73.49
2023-02-13T07:27:33.595Z,73.24
2023-02-13T07:30:01.867Z,73.13
2023-02-13T07:32:32.190Z,71.85
2023-02-13T07:35:02.647Z,72.09
2023-02-13T07:37:31.373Z,72.05
2023-02-13T07:40:05.608Z,71.93
2023-02-13T07:42:35.009Z,71.59
2023-02-13T07:45:05.716Z,71.93
2023-02-13T07:47:34.773Z,71.81
2023-02-13T07:50:05.967Z,71.92
2023-02-13T07:52:34.042Z,72.29
2023-02-13T07:55:01.957Z,71.49
2023-02-13T07:57:31.715Z,72.03
2023-02-13T07:59:59.953Z,71.08
2023-02-13T08:02:27.856Z,71.24
2023-02-13T08:04:55.831Z,71.41
2023-02-13T08:07:25.198Z,72.08
2023-02-13T08:10:10.731Z,70.80
2023-02-13T08:12:38.575Z,70.37
2023-02-13T08:15:07.584Z,71.36
2023-02-13T08:17:35.439Z,71.49
2023-02-13T08:20:03.341Z,70.59
2023-02-13T08:22:32.492Z,70.88
2023-02-13T08:25:00.397Z,69.96
2023-02-13T08:27:30.212Z,70.81
2023-02-13T08:29:58.456Z,70.76
2023-02-13T08:32:26.923Z,70.79
2023-02-13T08:34:54.742Z,70.74
2023-02-13T08:37:22.600Z,71.32
2023-02-13T08:39:51.929Z,71.04
2023-02-13T08:42:20.027Z,70.79
2023-02-13T08:44:47.940Z,70.02
2023-02-13T08:47:15.959Z,70.57
2023-02-13T08:49:44.227Z,70.34
2023-02-13T08:52:12.051Z,70.63
2023-02-13T08:54:39.893Z,70.85
2023-02-13T08:57:09.628Z,70.53
2023-02-13T08:59:37.410Z,69.93
2023-02-13T09:02:05.395Z,70.13
2023-02-13T09:04:33.250Z,68.99
2023-02-13T09:07:01.077Z,68.47
2023-02-13T09:09:29.200Z,68.87
2023-02-13T09:11:57.923Z,68.17
2023-02-13T09:14:27.189Z,68.05
2023-02-13T09:16:55.224Z,67.85
2023-02-13T09:19:23.195Z,67.61
2023-02-13T09:21:51.097Z,66.95
2023-02-13T09:24:18.964Z,66.66
2023-02-13T09:26:46.792Z,66.48
2023-02-13T09:29:14.640Z,67.03
2023-02-13T09:31:44.106Z,67.54
2023-02-13T09:34:11.985Z,67.41
2023-02-13T09:36:39.793Z,66.98
2023-02-13T09:39:07.713Z,67.42
2023-02-13T09:41:39.800Z,67.36
2023-02-13T09:44:12.966Z,66.91
2023-02-13T09:46:41.848Z,67.43
2023-02-13T09:49:16.529Z,67.61
2023-02-13T09:51:46.392Z,67.17
2023-02-13T09:54:19.189Z,67.86
2023-02-13T09:56:54.949Z,66.43
2023-02-13T09:59:40.971Z,65.64
2023-02-13T10:02:24.503Z,65.49
2023-02-13T10:05:07.592Z,65.13
2023-02-13T10:07:41.211Z,65.46
2023-02-13T10:10:20.259Z,64.67
2023-02-13T10:13:08.598Z,64.40
2023-02-13T10:15:43.152Z,63.84
2023-02-13T10:18:14.145Z,64.72
2023-02-13T10:20:49.275Z,63.90
2023-02-13T10:23:23.564Z,63.73
2023-02-13T10:25:57.476Z,62.91
2023-02-13T10:28:34.763Z,62.66
2023-02-13T10:31:07.708Z,64.23
2023-02-13T10:33:41.991Z,63.30
2023-02-13T10:36:19.993Z,62.78
2023-02-13T10:38:57.767Z,63.05
2023-02-13T10:41:33.077Z,63.80
2023-02-13T10:44:17.223Z,63.33
2023-02-13T10:46:57.130Z,63.56
2023-02-13T10:49:45.304Z,62.47
2023-02-13T10:52:29.830Z,62.17
2023-02-13T10:55:15.577Z,62.96
2023-02-13T10:58:03.145Z,62.23
2023-02-13T11:00:36.068Z,63.14
2023-02-13T11:03:04.199Z,63.04
2023-02-13T11:05:34.952Z,62.03
2023-02-13T11:08:04.957Z,62.85
2023-02-13T11:10:33.234Z,62.65
2023-02-13T11:13:33.666Z,62.43
2023-02-13T11:16:04.806Z,63.13
2023-02-13T11:18:35.833Z,62.78
2023-02-13T11:21:09.115Z,63.07
2023-02-13T11:23:47.647Z,62.82
2023-02-13T11:26:24.259Z,63.28
2023-02-13T11:29:02.070Z,62.25
2023-02-13T11:31:33.134Z,62.53
2023-02-13T11:34:19.382Z,62.39
2023-02-13T11:36:48.299Z,62.26
2023-02-13T11:39:24.244Z,62.32
2023-02-13T11:41:55.288Z,62.22
2023-02-13T11:44:28.225Z,62.00
2023-02-13T11:46:58.476Z,62.09
2023-02-13T11:49:28.901Z,62.15
2023-02-13T11:51:58.814Z,62.63
2023-02-13T11:54:37.463Z,62.04
2023-02-13T11:57:21.092Z,62.51
2023-02-13T11:59:56.393Z,62.36
2023-02-13T12:02:27.013Z,63.15
2023-02-13T12:05:00.175Z,63.23
2023-02-13T12:07:31.115Z,63.34
2023-02-13T12:10:06.094Z,63.60
2023-02-13T12:12:50.918Z,63.33
2023-02-13T12:15:23.891Z,63.29
2023-02-13T12:18:06.517Z,63.34
2023-02-13T12:20:44.870Z,63.75
2023-02-13T12:23:27.439Z,64.30
2023-02-13T12:26:22.333Z,64.29
2023-02-13T12:29:11.120Z,64.77
2023-02-13T12:31:59.499Z,62.46
2023-02-13T12:35:00.230Z,63.54
2023-02-13T12:37:47.593Z,62.97
2023-02-13T12:40:40.651Z,63.23
2023-02-13T12:43:33.221Z,63.77
2023-02-13T12:46:06.706Z,64.65
2023-02-13T12:48:42.998Z,64.36
2023-02-13T12:51:26.710Z,64.97
2023-02-13T12:54:15.332Z,64.63
2023-02-13T12:57:16.811Z,65.15
2023-02-13T13:00:00.802Z,64.34
2023-02-13T13:02:54.868Z,64.68
2023-02-13T13:05:37.813Z,64.77
2023-02-13T13:08:25.971Z,64.51
2023-02-13T13:11:15.223Z,63.70
2023-02-13T13:14:00.925Z,65.23
2023-02-13T13:16:45.255Z,64.90
2023-02-13T13:19:22.058Z,65.36
2023-02-13T13:21:57.250Z,65.67
2023-02-13T13:24:34.822Z,64.51
2023-02-13T13:27:05.071Z,65.81
2023-02-13T13:29:41.143Z,64.36
2023-02-13T13:32:16.284Z,65.23
2023-02-13T13:34:44.365Z,64.88
2023-02-13T13:37:18.673Z,64.57
2023-02-13T13:39:54.900Z,64.64
2023-02-13T13:42:33.797Z,64.25
2023-02-13T13:45:22.009Z,63.83
2023-02-13T13:48:03.038Z,64.06
2023-02-13T13:50:33.038Z,64.12
2023-02-13T13:53:12.082Z,64.32
2023-02-13T13:56:09.438Z,63.93
2023-02-13T13:58:41.456Z,63.91
2023-02-13T14:01:22.297Z,63.96
2023-02-13T14:03:54.281Z,64.05
2023-02-13T14:06:24.818Z,63.98
2023-02-13T14:09:00.549Z,63.92
2023-02-13T14:11:38.189Z,63.42
2023-02-13T14:14:50.785Z,63.65
2023-02-13T14:17:34.490Z,63.71
2023-02-13T14:20:06.784Z,63.48
2023-02-13T14:22:39.325Z,64.32
2023-02-13T14:25:22.657Z,63.98
2023-02-13T14:27:59.203Z,63.08
2023-02-13T14:30:31.382Z,64.05
2023-02-13T14:33:02.730Z,63.15
2023-02-13T14:35:34.997Z,62.97
2023-02-13T14:38:07.393Z,63.67
2023-02-13T14:40:53.765Z,63.01
2023-02-13T14:43:31.419Z,63.49
2023-02-13T14:46:05.903Z,63.92
2023-02-13T14:48:41.185Z,64.87
2023-02-13T14:51:20.089Z,62.83
2023-02-13T14:53:52.950Z,63.30
2023-02-13T14:56:23.688Z,63.20
2023-02-13T14:58:55.894Z,63.15
2023-02-13T15:01:31.383Z,62.94
2023-02-13T15:04:05.683Z,63.35
2023-02-13T15:06:39.586Z,62.85
2023-02-13T15:09:18.730Z,63.40
2023-02-13T15:11:47.464Z,63.66
2023-02-13T15:14:34.854Z,64.23
2023-02-13T15:17:08.188Z,64.15
2023-02-13T15:19:40.086Z,65.02
2023-02-13T15:22:18.855Z,64.31
2023-02-13T15:24:48.648Z,64.28
2023-02-13T15:27:21.410Z,63.97
2023-02-13T15:29:56.954Z,64.36
2023-02-13T15:32:30.019Z,64.72
2023-02-13T15:34:57.892Z,65.77
2023-02-13T15:37:30.668Z,65.02
2023-02-13T15:40:25.028Z,65.65
2023-02-13T15:42:54.247Z,65.44
2023-02-13T15:45:24.454Z,64.96
2023-02-13T15:47:53.110Z,66.08
2023-02-13T15:50:29.581Z,64.70
2023-02-13T15:52:59.556Z,65.37
2023-02-13T15:55:30.332Z,64.51
2023-02-13T15:58:01.066Z,65.03
2023-02-13T16:00:32.273Z,65.07
2023-02-13T16:03:03.558Z,65.41
2023-02-13T16:05:41.446Z,65.60
2023-02-13T16:08:33.794Z,65.41
2023-02-13T16:11:19.361Z,65.53
2023-02-13T16:14:00.215Z,65.91
2023-02-13T16:16:29.489Z,66.08
2023-02-13T16:18:57.684Z,65.51
2023-02-13T16:21:27.474Z,65.69
2023-02-13T16:24:00.902Z,65.95
2023-02-13T16:26:29.155Z,66.48
2023-02-13T16:28:57.072Z,66.04
2023-02-13T16:31:25.181Z,65.96
2023-02-13T16:34:14.402Z,66.25
2023-02-13T16:37:00.897Z,64.99
2023-02-13T16:39:49.512Z,65.43
2023-02-13T16:45:25.039Z,65.44
2023-02-13T16:48:03.783Z,65.77
2023-02-13T16:50:35.136Z,66.08
2023-02-13T16:53:06.606Z,66.88
2023-02-13T16:55:35.932Z,65.51
2023-02-13T16:58:13.415Z,65.97
2023-02-13T17:00:44.361Z,65.39
2023-02-13T17:03:16.262Z,65.61
2023-02-13T17:05:47.401Z,65.15
2023-02-13T17:08:15.457Z,64.94
2023-02-13T17:11:06.771Z,65.71
2023-02-13T17:13:35.740Z,65.16
2023-02-13T17:16:03.714Z,65.30
2023-02-13T17:18:31.566Z,64.89
2023-02-13T17:20:59.792Z,65.35
2023-02-13T17:23:27.991Z,64.95
2023-02-13T17:25:59.292Z,64.78
2023-02-13T17:28:30.441Z,65.20
2023-02-13T17:31:00.685Z,64.95
2023-02-13T17:33:30.626Z,64.66
2023-02-13T17:35:58.906Z,63.98
2023-02-13T17:38:26.852Z,64.98
2023-02-13T17:40:54.921Z,64.53
2023-02-13T17:43:25.387Z,64.70
2023-02-13T17:45:53.422Z,64.66
2023-02-13T17:48:21.879Z,64.24
2023-02-13T17:50:51.570Z,63.96
2023-02-13T17:53:23.582Z,64.08
2023-02-13T17:55:52.258Z,64.09
2023-02-13T17:58:20.285Z,63.29
2023-02-13T18:00:49.721Z,63.16
2023-02-13T18:03:17.755Z,63.92
2023-02-13T18:05:48.548Z,63.47
2023-02-13T18:08:16.503Z,64.42
2023-02-13T18:10:44.360Z,64.04
2023-02-13T18:13:12.271Z,64.06
2023-02-13T18:15:42.676Z,63.90
2023-02-13T18:18:13.198Z,64.32
2023-02-13T18:20:41.176Z,64.10
2023-02-13T18:23:09.746Z,63.06
2023-02-13T18:25:37.850Z,63.53
2023-02-13T18:28:05.706Z,64.39
2023-02-13T18:30:33.639Z,63.76
2023-02-13T18:33:05.006Z,64.55
2023-02-13T18:35:36.595Z,64.11
2023-02-13T18:38:04.441Z,64.08
2023-02-13T18:40:32.301Z,63.51
2023-02-13T18:43:07.231Z,63.77
2023-02-13T18:45:37.125Z,64.48
2023-02-13T18:48:09.481Z,64.15
2023-02-13T18:50:43.407Z,63.18
2023-02-13T18:53:12.277Z,64.47
2023-02-13T18:55:40.493Z,64.37
2023-02-13T18:58:08.618Z,64.40
2023-02-13T19:00:40.857Z,64.51
2023-02-13T19:03:11.534Z,63.99
2023-02-13T19:05:48.164Z,63.70
2023-02-13T19:08:16.291Z,64.20
2023-02-13T19:10:44.142Z,64.81
2023-02-13T19:13:12.094Z,64.55
2023-02-13T19:15:40.337Z,64.92
2023-02-13T19:18:08.209Z,64.31
2023-02-13T19:20:38.551Z,64.38
2023-02-13T19:23:08.226Z,64.68
2023-02-13T19:25:37.904Z,64.93
2023-02-13T19:28:06.284Z,64.25
2023-02-13T19:30:34.232Z,64.78
2023-02-13T19:33:02.138Z,65.07
2023-02-13T19:35:30.060Z,64.93
2023-02-13T19:37:57.914Z,64.27
2023-02-13T19:40:27.222Z,63.92
2023-02-13T19:42:55.163Z,64.42
2023-02-13T19:45:23.141Z,64.76
2023-02-13T19:47:51.057Z,64.22
2023-02-13T19:50:18.979Z,64.08
2023-02-13T19:52:46.865Z,64.25
2023-02-13T19:55:15.084Z,64.56
2023-02-13T19:57:44.416Z,64.49
2023-02-13T20:00:13.326Z,64.24
2023-02-13T20:02:41.305Z,64.37
2023-02-13T20:05:09.714Z,64.35
2023-02-13T20:07:37.803Z,63.96
2023-02-13T20:10:07.075Z,64.17
2023-02-13T20:12:35.038Z,63.74
2023-02-13T20:15:04.824Z,64.13
2023-02-13T20:17:32.772Z,64.71
2023-02-13T20:20:00.677Z,64.12
2023-02-13T20:22:30.881Z,64.38
2023-02-13T20:24:58.833Z,64.84
2023-02-13T20:27:26.852Z,64.43
2023-02-13T20:30:03.374Z,64.69
2023-02-13T20:32:36.428Z,64.17
2023-02-13T20:35:04.699Z,64.63
2023-02-13T20:37:32.918Z,64.33
2023-02-13T20:40:00.977Z,64.26
2023-02-13T20:42:32.385Z,64.37
2023-02-13T20:45:00.394Z,64.66
2023-02-13T20:47:28.390Z,64.18
2023-02-13T20:49:57.713Z,63.90
2023-02-13T20:52:25.948Z,64.39
2023-02-13T20:54:53.861Z,64.80
2023-02-13T20:57:21.759Z,64.47
2023-02-13T20:59:49.657Z,64.25
2023-02-13T21:02:19.500Z,64.21
2023-02-13T21:04:47.437Z,64.10
2023-02-13T21:07:17.328Z,64.04
2023-02-13T21:09:45.462Z,64.27
2023-02-13T21:12:13.359Z,64.68
2023-02-13T21:14:41.351Z,63.98
2023-02-13T21:17:10.112Z,64.43
2023-02-13T21:19:38.101Z,63.78
2023-02-13T21:22:12.295Z,63.29
2023-02-13T21:24:43.201Z,63.79
2023-02-13T21:27:11.876Z,64.11
2023-02-13T21:29:40.021Z,63.41
2023-02-13T21:32:07.935Z,64.23
2023-02-13T21:34:36.570Z,63.90
2023-02-13T21:37:04.592Z,64.02
2023-02-13T21:39:32.548Z,63.93
2023-02-13T21:42:01.983Z,63.84
2023-02-13T21:44:29.913Z,63.49
2023-02-13T21:46:58.062Z,63.42
2023-02-13T21:49:27.683Z,63.88
2023-02-13T21:51:55.640Z,64.27
2023-02-13T21:54:23.453Z,63.13
2023-02-13T21:56:51.305Z,63.23
2023-02-13T21:59:20.527Z,63.29
2023-02-13T22:01:50.551Z,63.34
2023-02-13T22:04:19.097Z,63.30
2023-02-13T22:06:50.030Z,63.22
2023-02-13T22:09:20.115Z,63.29
2023-02-13T22:11:49.134Z,63.46
2023-02-13T22:14:20.375Z,63.35
2023-02-13T22:16:51.024Z,62.97
2023-02-13T22:19:20.275Z,63.28
2023-02-13T22:21:48.313Z,62.86
2023-02-13T22:24:16.296Z,63.49
2023-02-13T22:26:45.633Z,63.76
2023-02-13T22:29:15.183Z,63.60
2023-02-13T22:31:44.859Z,64.67
2023-02-13T22:34:14.409Z,64.38
2023-02-13T22:36:43.180Z,63.83
2023-02-13T22:39:12.748Z,63.39
2023-02-13T22:41:41.213Z,64.90
2023-02-13T22:44:09.135Z,65.26
2023-02-13T22:46:37.078Z,64.36
2023-02-13T22:49:06.374Z,64.95
2023-02-13T22:51:36.932Z,64.13
2023-02-13T22:54:05.631Z,64.26
2023-02-13T22:56:34.432Z,64.34
2023-02-13T22:59:02.451Z,64.95
2023-02-13T23:01:31.072Z,65.20
2023-02-13T23:03:59.630Z,64.69
2023-02-13T23:06:28.942Z,64.98
2023-02-13T23:08:57.744Z,64.99
2023-02-13T23:11:45.409Z,64.91
2023-02-13T23:14:14.126Z,64.67
2023-02-13T23:17:00.964Z,64.70
2023-02-13T23:19:30.050Z,64.88
2023-02-13T23:21:59.835Z,64.48
2023-02-13T23:24:28.468Z,64.94
2023-02-13T23:26:56.536Z,64.48
2023-02-13T23:29:24.610Z,64.42
2023-02-13T23:31:52.564Z,64.63
2023-02-13T23:34:20.925Z,64.86
2023-02-13T23:36:48.913Z,65.47
2023-02-13T23:39:18.135Z,65.62
2023-02-13T23:41:46.089Z,65.59
2023-02-13T23:44:13.972Z,65.24
2023-02-13T23:46:41.988Z,64.42
2023-02-13T23:49:10.392Z,64.70
2023-02-13T23:51:38.391Z,65.01
2023-02-13T23:54:06.643Z,65.65
2023-02-13T23:56:36.021Z,65.90
2023-02-13T23:59:03.938Z,65.78
